createdAt,value
2019-01-04T00:01:40.977Z,43.63
2019-01-04T00:04:09.542Z,31.43
2019-01-04T00:06:38.133Z,32.57
2019-01-04T00:09:07.275Z,38.50
2019-01-04T00:11:35.873Z,35.97
2019-01-04T00:14:04.548Z,39.90
2019-01-04T00:16:33.091Z,39.67
2019-01-04T00:19:01.669Z,42.13
2019-01-04T00:21:30.253Z,41.47
2019-01-04T00:23:58.819Z,41.30
2019-01-04T00:26:27.269Z,40.97
2019-01-04T00:28:55.745Z,41.17
2019-01-04T00:31:24.306Z,39.07
2019-01-04T00:33:52.757Z,37.60
2019-01-04T00:36:22.974Z,41.30
2019-01-04T00:38:51.532Z,42.60
2019-01-04T00:41:20.192Z,42.10
2019-01-04T00:43:49.865Z,39.43
2019-01-04T00:46:18.425Z,37.97
2019-01-04T00:48:46.981Z,38.03
2019-01-04T00:51:15.493Z,42.33
2019-01-04T00:53:44.139Z,40.17
2019-01-04T00:56:33.957Z,34.90
2019-01-04T00:59:20.254Z,40.30
2019-01-04T01:01:54.745Z,42.53
2019-01-04T01:04:58.192Z,46.30
2019-01-04T01:07:37.407Z,41.53
2019-01-04T01:10:39.679Z,44.10
2019-01-04T01:13:24.145Z,47.20
2019-01-04T01:16:14.993Z,49.27
2019-01-04T01:19:10.812Z,47.23
2019-01-04T01:22:01.896Z,49.93
2019-01-04T01:25:10.029Z,45.47
2019-01-04T01:27:53.674Z,42.80
2019-01-04T01:30:28.320Z,42.57
2019-01-04T01:33:22.123Z,42.50
2019-01-04T01:35:56.661Z,37.67
2019-01-04T01:38:34.095Z,33.83
2019-01-04T01:41:20.843Z,43.17
2019-01-04T01:44:13.315Z,30.43
2019-01-04T01:46:47.528Z,31.60
2019-01-04T01:49:37.008Z,31.57
2019-01-04T01:52:17.718Z,33.97
2019-01-04T01:54:46.147Z,29.27
2019-01-04T01:57:14.544Z,31.60
2019-01-04T01:59:42.943Z,35.07
2019-01-04T02:02:11.353Z,35.47
2019-01-04T02:04:39.759Z,31.43
2019-01-04T02:07:08.176Z,29.03
2019-01-04T02:09:36.567Z,31.90
2019-01-04T02:12:04.969Z,28.30
2019-01-04T02:14:33.387Z,28.43
2019-01-04T02:17:01.771Z,30.83
2019-01-04T02:19:30.197Z,34.67
2019-01-04T02:21:58.588Z,31.53
2019-01-04T02:24:26.979Z,30.63
2019-01-04T02:26:55.412Z,29.07
2019-01-04T02:29:23.801Z,34.73
2019-01-04T02:31:52.229Z,30.70
2019-01-04T02:34:20.611Z,30.17
2019-01-04T02:36:49.009Z,30.60
2019-01-04T02:39:17.436Z,30.33
2019-01-04T02:41:45.833Z,28.30
2019-01-04T02:44:14.243Z,35.90
2019-01-04T02:46:42.631Z,26.77
2019-01-04T02:49:11.051Z,28.00
2019-01-04T02:51:39.439Z,26.47
2019-01-04T02:54:07.836Z,28.67
2019-01-04T02:56:36.258Z,29.50
2019-01-04T02:59:04.650Z,32.87
2019-01-04T03:01:33.139Z,25.90
2019-01-04T03:04:01.536Z,30.27
2019-01-04T03:06:29.937Z,31.67
2019-01-04T03:08:58.360Z,28.83
2019-01-04T03:11:26.741Z,26.23
2019-01-04T03:13:55.159Z,34.93
2019-01-04T03:16:23.548Z,31.50
2019-01-04T03:18:51.975Z,33.37
2019-01-04T03:21:20.368Z,30.37
2019-01-04T03:23:48.762Z,26.33
2019-01-04T03:26:17.178Z,29.50
2019-01-04T03:28:45.640Z,32.23
2019-01-04T03:31:17.171Z,29.30
2019-01-04T03:33:45.565Z,31.73
2019-01-04T03:36:13.987Z,31.47
2019-01-04T03:38:42.370Z,36.27
2019-01-04T03:41:10.792Z,35.97
2019-01-04T03:43:39.175Z,38.63
2019-01-04T03:46:07.591Z,37.67
2019-01-04T03:48:35.983Z,35.27
2019-01-04T03:51:04.406Z,36.87
2019-01-04T03:53:32.788Z,33.80
2019-01-04T03:56:01.197Z,34.17
2019-01-04T03:58:29.571Z,38.67
2019-01-04T04:00:57.999Z,36.53
2019-01-04T04:03:26.383Z,35.23
2019-01-04T04:05:54.815Z,39.13
2019-01-04T04:08:23.200Z,39.13
2019-01-04T04:10:51.623Z,35.40
2019-01-04T04:13:20.002Z,36.47
2019-01-04T04:15:48.423Z,32.40
2019-01-04T04:18:16.809Z,30.23
2019-01-04T04:20:45.245Z,33.57
2019-01-04T04:23:13.628Z,33.87
2019-01-04T04:25:42.046Z,39.47
2019-01-04T04:28:10.438Z,33.40
2019-01-04T04:30:38.864Z,31.83
2019-01-04T04:33:07.256Z,35.07
2019-01-04T04:35:35.688Z,34.47
2019-01-04T04:38:04.075Z,31.23
2019-01-04T04:40:33.555Z,36.30
2019-01-04T04:43:01.940Z,34.63
2019-01-04T04:45:30.327Z,38.23
2019-01-04T04:47:58.747Z,38.97
2019-01-04T04:50:27.131Z,38.40
2019-01-04T04:52:55.548Z,40.80
2019-01-04T04:55:23.935Z,44.97
2019-01-04T04:57:52.347Z,42.27
2019-01-04T05:00:20.728Z,45.97
2019-01-04T05:02:58.178Z,45.23
2019-01-04T05:05:25.301Z,49.80
2019-01-04T05:10:27.587Z,46.07
2019-01-04T05:12:56.026Z,43.20
2019-01-04T05:15:24.444Z,44.50
2019-01-04T05:20:41.932Z,45.97
2019-01-04T05:23:10.355Z,46.63
2019-01-04T05:25:38.754Z,47.40
2019-01-04T05:28:07.175Z,44.03
2019-01-04T05:30:35.564Z,45.93
2019-01-04T05:33:03.983Z,42.67
2019-01-04T05:35:33.994Z,44.43
2019-01-04T05:38:02.415Z,45.20
2019-01-04T05:40:30.797Z,48.13
2019-01-04T05:42:59.231Z,50.93
2019-01-04T05:45:27.624Z,44.00
2019-01-04T05:47:56.046Z,43.27
2019-01-04T05:50:24.433Z,44.10
2019-01-04T05:52:52.859Z,46.13
2019-01-04T05:55:21.235Z,43.00
2019-01-04T05:57:49.652Z,37.67
2019-01-04T06:00:18.040Z,36.80
2019-01-04T06:02:46.454Z,39.83
2019-01-04T06:05:14.834Z,33.00
2019-01-04T06:07:43.264Z,39.70
2019-01-04T06:10:11.649Z,42.30
2019-01-04T06:12:40.032Z,35.90
2019-01-04T06:15:08.442Z,36.77
2019-01-04T06:17:36.828Z,36.30
2019-01-04T06:20:06.014Z,38.80
2019-01-04T06:22:34.408Z,37.77
2019-01-04T06:25:02.826Z,37.80
2019-01-04T06:27:31.202Z,39.50
2019-01-04T06:29:59.626Z,41.30
2019-01-04T06:32:28.018Z,40.63
2019-01-04T06:34:56.443Z,44.43
2019-01-04T06:37:24.838Z,42.00
2019-01-04T06:39:53.255Z,48.47
2019-01-04T06:42:21.643Z,42.67
2019-01-04T06:44:50.061Z,47.20
2019-01-04T06:47:18.441Z,44.73
2019-01-04T06:49:46.866Z,47.17
2019-01-04T06:52:15.254Z,47.17
2019-01-04T06:55:18.470Z,42.53
2019-01-04T06:57:46.860Z,50.20
2019-01-04T07:00:15.342Z,49.33
2019-01-04T07:02:43.731Z,46.70
2019-01-04T07:05:12.142Z,48.30
2019-01-04T07:07:40.526Z,53.43
2019-01-04T07:10:09.590Z,57.47
2019-01-04T07:12:37.982Z,50.03
2019-01-04T07:15:07.267Z,50.37
2019-01-04T07:17:35.681Z,47.07
2019-01-04T07:20:05.247Z,47.20
2019-01-04T07:22:33.634Z,42.63
2019-01-04T07:25:02.073Z,46.63
2019-01-04T07:27:30.456Z,50.37
2019-01-04T07:29:58.874Z,38.77
2019-01-04T07:32:27.255Z,44.90
2019-01-04T07:34:55.679Z,39.60
2019-01-04T07:37:24.063Z,45.57
2019-01-04T07:39:52.452Z,41.17
2019-01-04T07:42:20.943Z,48.13
2019-01-04T07:44:49.330Z,39.00
2019-01-04T07:47:17.756Z,46.40
2019-01-04T07:49:46.142Z,43.73
2019-01-04T07:52:14.597Z,43.63
2019-01-04T07:54:42.972Z,36.93
2019-01-04T07:57:11.384Z,42.90
2019-01-04T07:59:39.772Z,41.53
2019-01-04T08:02:37.174Z,44.83
2019-01-04T08:05:08.547Z,42.10
2019-01-04T08:07:36.960Z,39.67
2019-01-04T08:10:07.204Z,44.77
2019-01-04T08:12:35.686Z,39.27
2019-01-04T08:15:06.415Z,42.97
2019-01-04T08:17:34.830Z,45.93
2019-01-04T08:20:03.784Z,42.13
2019-01-04T08:22:32.207Z,39.00
2019-01-04T08:25:00.602Z,44.70
2019-01-04T08:27:29.023Z,49.17
2019-01-04T08:29:57.404Z,45.50
2019-01-04T08:32:25.818Z,50.03
2019-01-04T08:34:54.206Z,45.67
2019-01-04T08:37:22.619Z,40.97
2019-01-04T08:39:51.011Z,42.67
2019-01-04T08:42:19.433Z,39.20
2019-01-04T08:44:47.820Z,39.17
2019-01-04T08:47:16.239Z,39.77
2019-01-04T08:49:44.618Z,37.77
2019-01-04T08:52:13.031Z,38.10
2019-01-04T08:54:41.418Z,38.20
2019-01-04T08:57:09.839Z,34.87
2019-01-04T08:59:38.232Z,37.67
2019-01-04T09:02:06.653Z,39.43
2019-01-04T09:04:35.045Z,36.90
2019-01-04T09:07:03.451Z,40.83
2019-01-04T09:09:31.842Z,34.67
2019-01-04T09:12:00.259Z,35.03
2019-01-04T09:14:28.651Z,32.07
2019-01-04T09:16:57.071Z,30.97
2019-01-04T09:19:25.467Z,31.93
2019-01-04T09:21:53.883Z,31.07
2019-01-04T09:24:22.319Z,30.30
2019-01-04T09:26:50.705Z,30.70
2019-01-04T09:29:19.086Z,25.53
2019-01-04T09:31:47.504Z,30.57
2019-01-04T09:34:15.887Z,31.90
2019-01-04T09:36:44.305Z,36.67
2019-01-04T09:39:12.690Z,30.30
2019-01-04T09:41:41.107Z,32.73
2019-01-04T09:44:09.496Z,45.77
2019-01-04T09:46:38.264Z,25.13
2019-01-04T09:49:06.678Z,26.60
2019-01-04T09:51:35.061Z,26.30
2019-01-04T09:54:03.473Z,23.80
2019-01-04T09:56:31.908Z,25.83
2019-01-04T09:59:00.283Z,25.37
2019-01-04T10:01:28.675Z,30.57
2019-01-04T10:03:57.092Z,25.23
2019-01-04T10:06:25.483Z,27.93
2019-01-04T10:08:53.890Z,25.77
2019-01-04T10:11:22.275Z,25.33
2019-01-04T10:13:50.700Z,23.60
2019-01-04T10:16:19.084Z,25.00
2019-01-04T10:18:47.505Z,31.83
2019-01-04T10:21:15.895Z,23.20
2019-01-04T10:23:44.316Z,22.73
2019-01-04T10:26:12.712Z,25.13
2019-01-04T10:28:41.124Z,25.67
2019-01-04T10:31:09.508Z,24.53
2019-01-04T10:33:37.914Z,24.77
2019-01-04T10:36:06.315Z,20.60
2019-01-04T10:38:34.731Z,22.33
2019-01-04T10:41:03.119Z,24.07
2019-01-04T10:43:31.540Z,22.93
2019-01-04T10:45:59.919Z,24.57
2019-01-04T10:48:28.310Z,23.47
2019-01-04T10:50:56.725Z,21.97
2019-01-04T10:53:25.107Z,24.77
2019-01-04T10:55:53.527Z,18.70
2019-01-04T10:58:21.908Z,17.33
2019-01-04T11:00:50.326Z,20.27
2019-01-04T11:03:18.728Z,22.23
2019-01-04T11:05:47.218Z,22.80
2019-01-04T11:08:15.591Z,19.97
2019-01-04T11:10:44.011Z,26.90
2019-01-04T11:13:12.411Z,24.43
2019-01-04T11:15:40.817Z,24.70
2019-01-04T11:18:09.954Z,28.03
2019-01-04T11:20:40.386Z,26.27
2019-01-04T11:23:34.770Z,23.70
2019-01-04T11:26:15.061Z,23.87
2019-01-04T11:28:55.738Z,19.10
2019-01-04T11:31:43.798Z,23.70
2019-01-04T11:34:15.567Z,26.07
2019-01-04T11:36:47.270Z,29.13
2019-01-04T11:39:27.900Z,28.27
2019-01-04T11:42:14.249Z,29.43
2019-01-04T11:44:48.920Z,29.73
2019-01-04T11:47:23.316Z,28.30
2019-01-04T11:50:23.579Z,27.60
2019-01-04T11:52:52.135Z,25.77
2019-01-04T11:55:20.520Z,30.53
2019-01-04T11:57:48.937Z,28.40
2019-01-04T12:00:17.314Z,27.67
2019-01-04T12:02:45.692Z,26.27
2019-01-04T12:05:15.486Z,26.97
2019-01-04T12:07:43.887Z,36.40
2019-01-04T12:10:12.291Z,37.00
2019-01-04T12:12:40.681Z,33.13
2019-01-04T12:15:09.292Z,35.63
2019-01-04T12:17:37.681Z,30.77
2019-01-04T12:20:07.444Z,29.97
2019-01-04T12:22:35.827Z,29.13
2019-01-04T12:25:05.320Z,31.27
2019-01-04T12:27:33.709Z,32.33
2019-01-04T12:30:02.452Z,35.63
2019-01-04T12:32:30.951Z,31.70
2019-01-04T12:34:59.344Z,31.07
2019-01-04T12:37:27.842Z,29.90
2019-01-04T12:39:56.237Z,33.87
2019-01-04T12:42:24.661Z,36.10
2019-01-04T12:44:53.080Z,28.20
2019-01-04T12:47:21.500Z,27.33
2019-01-04T12:49:49.951Z,30.67
2019-01-04T12:52:18.361Z,33.07
2019-01-04T12:54:46.755Z,27.37
2019-01-04T12:57:15.169Z,24.23
2019-01-04T12:59:43.550Z,22.63
2019-01-04T13:02:11.987Z,24.80
2019-01-04T13:04:40.355Z,23.67
2019-01-04T13:07:08.795Z,23.30
2019-01-04T13:09:37.206Z,26.73
2019-01-04T13:12:05.670Z,28.00
2019-01-04T13:14:34.060Z,28.53
2019-01-04T13:17:02.469Z,32.87
2019-01-04T13:19:30.867Z,30.83
2019-01-04T13:21:59.295Z,32.50
2019-01-04T13:24:27.842Z,31.27
2019-01-04T13:26:56.252Z,35.83
2019-01-04T13:29:24.638Z,40.20
2019-01-04T13:31:53.129Z,34.03
2019-01-04T13:34:21.872Z,31.97
2019-01-04T13:36:50.330Z,34.17
2019-01-04T13:39:18.787Z,37.27
2019-01-04T13:41:47.229Z,33.50
2019-01-04T13:44:15.726Z,30.27
2019-01-04T13:46:44.182Z,35.60
2019-01-04T13:49:12.589Z,36.70
2019-01-04T13:51:41.032Z,38.70
2019-01-04T13:54:09.646Z,36.60
2019-01-04T13:56:38.603Z,37.33
2019-01-04T13:59:07.300Z,37.13
2019-01-04T14:01:36.021Z,37.60
2019-01-04T14:04:05.248Z,36.47
2019-01-04T14:06:34.235Z,42.43
2019-01-04T14:09:04.839Z,39.47
2019-01-04T14:11:33.429Z,40.13
2019-01-04T14:14:01.889Z,39.77
2019-01-04T14:16:30.565Z,44.40
2019-01-04T14:18:59.227Z,40.00
2019-01-04T14:21:27.871Z,45.00
2019-01-04T14:24:07.173Z,38.53
2019-01-04T14:26:35.620Z,41.87
2019-01-04T14:29:05.161Z,40.60
2019-01-04T14:31:34.421Z,36.70
2019-01-04T14:34:03.599Z,40.53
2019-01-04T14:36:32.075Z,39.20
2019-01-04T14:39:00.494Z,40.70
2019-01-04T14:41:28.874Z,40.57
2019-01-04T14:43:57.289Z,40.93
2019-01-04T14:46:25.704Z,39.80
2019-01-04T14:48:54.523Z,40.40
2019-01-04T14:51:24.995Z,41.23
2019-01-04T14:53:53.541Z,41.43
2019-01-04T14:56:21.940Z,41.33
2019-01-04T14:58:50.359Z,38.53
2019-01-04T15:01:18.762Z,41.27
2019-01-04T15:03:47.169Z,41.50
2019-01-04T15:06:15.559Z,45.40
2019-01-04T15:08:43.972Z,43.40
2019-01-04T15:11:12.358Z,41.23
2019-01-04T15:13:40.767Z,44.27
2019-01-04T15:16:09.150Z,42.60
2019-01-04T15:18:37.553Z,39.93
2019-01-04T15:21:06.019Z,41.03
2019-01-04T15:23:34.416Z,44.07
2019-01-04T15:26:03.997Z,40.63
2019-01-04T15:28:33.080Z,44.07
2019-01-04T15:31:01.663Z,43.27
2019-01-04T15:33:30.304Z,43.43
2019-01-04T15:35:58.901Z,42.83
2019-01-04T15:38:27.309Z,38.60
2019-01-04T15:40:55.881Z,46.83
2019-01-04T15:43:24.295Z,41.43
2019-01-04T15:45:52.673Z,38.17
2019-01-04T15:48:21.087Z,38.73
2019-01-04T15:50:49.475Z,43.83
2019-01-04T15:53:17.909Z,35.03
2019-01-04T15:55:46.290Z,36.33
2019-01-04T15:58:14.688Z,40.60
2019-01-04T16:00:43.173Z,37.13
2019-01-04T16:03:11.576Z,35.40
2019-01-04T16:05:39.968Z,43.60
2019-01-04T16:08:08.359Z,37.77
2019-01-04T16:10:36.792Z,37.33
2019-01-04T16:13:05.171Z,37.90
2019-01-04T16:15:33.592Z,37.57
2019-01-04T16:18:01.969Z,42.47
2019-01-04T16:20:30.346Z,45.37
2019-01-04T16:22:58.769Z,44.50
2019-01-04T16:25:27.150Z,44.90
2019-01-04T16:27:55.566Z,43.37
2019-01-04T16:30:23.953Z,50.57
2019-01-04T16:32:52.373Z,48.63
2019-01-04T16:35:20.742Z,48.83
2019-01-04T16:37:49.164Z,45.23
2019-01-04T16:40:17.564Z,51.07
2019-01-04T16:42:45.955Z,48.00
2019-01-04T16:45:14.384Z,47.70
2019-01-04T16:47:42.772Z,48.93
2019-01-04T16:50:11.184Z,53.80
2019-01-04T16:52:39.659Z,54.63
2019-01-04T16:55:09.111Z,51.67
2019-01-04T16:57:37.514Z,44.60
2019-01-04T17:00:09.231Z,48.60
2019-01-04T17:02:37.691Z,46.03
2019-01-04T17:05:06.197Z,48.47
2019-01-04T17:07:34.662Z,43.63
2019-01-04T17:10:03.640Z,44.93
2019-01-04T17:12:32.113Z,38.87
2019-01-04T17:15:00.600Z,34.60
2019-01-04T17:17:28.938Z,41.23
2019-01-04T17:19:57.359Z,36.10
2019-01-04T17:22:25.756Z,37.70
2019-01-04T17:24:54.223Z,39.67
2019-01-04T17:27:22.638Z,39.57
2019-01-04T17:29:51.019Z,36.90
2019-01-04T17:32:19.528Z,39.80
2019-01-04T17:34:47.919Z,36.90
2019-01-04T17:37:16.341Z,35.83
2019-01-04T17:39:44.736Z,37.10
2019-01-04T17:42:13.173Z,37.27
2019-01-04T17:44:41.963Z,35.93
2019-01-04T17:47:10.358Z,32.77
2019-01-04T17:49:39.181Z,30.67
2019-01-04T17:52:07.828Z,30.97
2019-01-04T17:54:36.227Z,31.13
2019-01-04T17:57:04.696Z,32.47
2019-01-04T17:59:33.192Z,28.60
2019-01-04T18:02:01.684Z,29.47
2019-01-04T18:04:30.081Z,31.60
2019-01-04T18:06:58.586Z,31.27
2019-01-04T18:09:27.153Z,31.47
2019-01-04T18:11:59.695Z,32.23
2019-01-04T18:14:28.391Z,34.90
2019-01-04T18:17:31.884Z,33.63
2019-01-04T18:19:39.641Z,29.20
2019-01-04T18:22:20.947Z,32.03
2019-01-04T18:24:49.745Z,27.13
2019-01-04T18:27:18.958Z,28.20
2019-01-04T18:29:48.423Z,29.70
2019-01-04T18:32:20.297Z,29.83
2019-01-04T18:34:49.060Z,27.17
2019-01-04T18:37:19.755Z,29.37
2019-01-04T18:39:49.805Z,32.90
2019-01-04T18:42:18.900Z,31.20
2019-01-04T18:44:48.774Z,29.47
2019-01-04T18:47:20.492Z,32.07
2019-01-04T18:49:55.220Z,24.90
2019-01-04T18:52:23.822Z,30.30
2019-01-04T18:54:52.347Z,28.53
2019-01-04T18:57:20.873Z,28.07
2019-01-04T18:59:49.348Z,26.43
2019-01-04T19:02:17.899Z,29.93
2019-01-04T19:04:46.516Z,33.13
2019-01-04T19:07:14.940Z,32.17
2019-01-04T19:09:43.337Z,29.90
2019-01-04T19:12:11.751Z,25.70
2019-01-04T19:14:40.193Z,27.43
2019-01-04T19:17:08.637Z,28.27
2019-01-04T19:19:37.023Z,29.47
2019-01-04T19:22:05.597Z,28.70
2019-01-04T19:24:33.979Z,29.23
2019-01-04T19:27:02.478Z,25.47
2019-01-04T19:29:31.002Z,28.67
2019-01-04T19:31:59.546Z,24.93
2019-01-04T19:34:28.060Z,23.40
2019-01-04T19:36:56.465Z,26.43
2019-01-04T19:39:24.941Z,27.03
2019-01-04T19:41:53.481Z,27.30
2019-01-04T19:44:21.912Z,25.27
2019-01-04T19:46:50.326Z,27.37
2019-01-04T19:49:19.118Z,27.07
2019-01-04T19:51:47.655Z,25.00
2019-01-04T19:54:16.073Z,27.17
2019-01-04T19:56:44.640Z,27.60
2019-01-04T19:59:13.045Z,24.37
2019-01-04T20:01:41.480Z,27.30
2019-01-04T20:04:10.134Z,25.17
2019-01-04T20:07:23.206Z,28.37
2019-01-04T20:14:01.118Z,26.93
2019-01-04T20:25:52.805Z,29.67
2019-01-04T20:28:48.521Z,29.10
2019-01-04T20:31:36.598Z,29.13
2019-01-04T20:34:18.893Z,29.63
2019-01-04T20:39:56.889Z,27.70
2019-01-04T20:45:22.771Z,27.93
2019-01-04T20:47:52.910Z,30.30
2019-01-04T20:50:25.966Z,31.10
2019-01-04T20:52:56.230Z,31.03
2019-01-04T20:55:32.215Z,32.87
2019-01-04T21:01:19.907Z,29.80
2019-01-04T21:04:00.889Z,28.37
2019-01-04T21:06:51.322Z,29.57
2019-01-04T21:09:30.833Z,32.83
2019-01-04T21:12:04.059Z,31.87
2019-01-04T21:20:31.009Z,32.63
2019-01-04T21:23:19.060Z,31.20
2019-01-04T21:26:01.448Z,32.40
2019-01-04T21:28:43.481Z,34.33
2019-01-04T21:31:29.888Z,35.33
2019-01-04T21:34:08.638Z,31.30
2019-01-04T21:36:38.698Z,32.23
2019-01-04T21:39:24.961Z,31.93
2019-01-04T21:42:11.190Z,33.47
2019-01-04T21:44:57.460Z,30.77
2019-01-04T21:47:27.529Z,29.37
2019-01-04T21:50:14.118Z,28.70
2019-01-04T21:53:02.399Z,31.23
2019-01-04T21:55:35.742Z,27.00
2019-01-04T21:58:14.631Z,31.30
2019-01-04T22:00:54.018Z,27.40
2019-01-04T22:03:40.264Z,28.57
2019-01-04T22:06:10.747Z,29.03
2019-01-04T22:08:50.072Z,27.10
2019-01-04T22:11:29.041Z,28.37
2019-01-04T22:14:01.168Z,29.07
2019-01-04T22:16:47.478Z,27.33
2019-01-04T22:19:19.116Z,29.47
2019-01-04T22:21:54.843Z,30.63
2019-01-04T22:24:36.715Z,29.73
2019-01-04T22:27:07.527Z,32.07
2019-01-04T22:29:37.773Z,27.53
2019-01-04T22:32:11.962Z,30.57
2019-01-04T22:34:55.401Z,30.93
2019-01-04T22:37:44.842Z,29.17
2019-01-04T22:40:26.828Z,28.60
2019-01-04T22:42:59.351Z,31.33
2019-01-04T22:45:34.937Z,28.77
2019-01-04T22:48:16.723Z,28.33
2019-01-04T22:51:05.542Z,26.73
2019-01-04T22:53:47.947Z,25.50
2019-01-04T22:56:39.540Z,26.97
2019-01-04T22:59:16.450Z,29.40
2019-01-04T23:02:21.721Z,28.17
2019-01-04T23:05:06.396Z,29.23
2019-01-04T23:07:42.627Z,29.77
2019-01-04T23:10:16.430Z,32.63
2019-01-04T23:12:57.669Z,29.93
2019-01-04T23:15:36.735Z,29.13
2019-01-04T23:18:19.219Z,32.03
2019-01-04T23:23:49.438Z,31.53
2019-01-04T23:26:38.320Z,33.97
2019-01-04T23:29:20.917Z,35.57
2019-01-04T23:32:01.831Z,35.87
2019-01-04T23:34:48.251Z,35.73
2019-01-04T23:37:35.043Z,35.73
2019-01-04T23:40:17.698Z,36.17
2019-01-04T23:42:54.164Z,36.90
2019-01-04T23:45:30.469Z,36.67
2019-01-04T23:48:16.900Z,38.00
2019-01-04T23:50:48.242Z,37.03
2019-01-04T23:53:34.552Z,36.17
2019-01-04T23:56:13.891Z,41.03
2019-01-04T23:58:53.031Z,38.83
